sensor_id;sensor_type;location;lat;lon;timestamp;temperature;humidity
15819;DHT22;8010;53.986;12.106;2022-08-19T00:00:13;21.40;99.90
15819;DHT22;8010;53.986;12.106;2022-08-19T00:02:40;21.40;99.90
15819;DHT22;8010;53.986;12.106;2022-08-19T00:05:07;21.40;99.90
15819;DHT22;8010;53.986;12.106;2022-08-19T00:07:33;21.30;99.90
15819;DHT22;8010;53.986;12.106;2022-08-19T00:09:58;21.30;99.90
15819;DHT22;8010;53.986;12.106;2022-08-19T00:12:24;21.30;99.90
15819;DHT22;8010;53.986;12.106;2022-08-19T00:14:49;21.30;99.90
15819;DHT22;8010;53.986;12.106;2022-08-19T00:17:15;21.30;99.90
15819;DHT22;8010;53.986;12.106;2022-08-19T00:19:40;21.20;99.90
15819;DHT22;8010;53.986;12.106;2022-08-19T00:22:06;21.20;99.90
15819;DHT22;8010;53.986;12.106;2022-08-19T00:24:34;21.20;99.90
15819;DHT22;8010;53.986;12.106;2022-08-19T00:27:01;21.10;99.90
15819;DHT22;8010;53.986;12.106;2022-08-19T00:29:27;21.20;99.90
15819;DHT22;8010;53.986;12.106;2022-08-19T00:31:53;21.10;99.90
15819;DHT22;8010;53.986;12.106;2022-08-19T00:34:21;21.10;99.90
15819;DHT22;8010;53.986;12.106;2022-08-19T00:36:47;21.10;99.90
15819;DHT22;8010;53.986;12.106;2022-08-19T00:39:14;21.10;99.90
15819;DHT22;8010;53.986;12.106;2022-08-19T00:41:42;21.10;99.90
15819;DHT22;8010;53.986;12.106;2022-08-19T00:44:09;21.00;99.90
15819;DHT22;8010;53.986;12.106;2022-08-19T00:46:36;21.00;99.90
15819;DHT22;8010;53.986;12.106;2022-08-19T00:49:13;21.00;99.90
15819;DHT22;8010;53.986;12.106;2022-08-19T00:51:41;20.90;99.90
15819;DHT22;8010;53.986;12.106;2022-08-19T00:54:07;20.90;99.90
15819;DHT22;8010;53.986;12.106;2022-08-19T00:56:34;20.90;99.90
15819;DHT22;8010;53.986;12.106;2022-08-19T00:59:02;20.90;99.90
15819;DHT22;8010;53.986;12.106;2022-08-19T01:01:28;20.90;99.90
15819;DHT22;8010;53.986;12.106;2022-08-19T01:03:53;20.80;99.90
15819;DHT22;8010;53.986;12.106;2022-08-19T01:06:19;20.70;99.90
15819;DHT22;8010;53.986;12.106;2022-08-19T01:08:44;20.70;99.90
15819;DHT22;8010;53.986;12.106;2022-08-19T01:11:10;20.70;99.90
15819;DHT22;8010;53.986;12.106;2022-08-19T01:13:36;20.70;99.90
15819;DHT22;8010;53.986;12.106;2022-08-19T01:16:05;20.70;99.90
15819;DHT22;8010;53.986;12.106;2022-08-19T01:18:32;20.60;99.90
15819;DHT22;8010;53.986;12.106;2022-08-19T01:21:05;20.60;99.90
15819;DHT22;8010;53.986;12.106;2022-08-19T01:23:32;20.60;99.90
15819;DHT22;8010;53.986;12.106;2022-08-19T01:26:20;20.60;99.90
15819;DHT22;8010;53.986;12.106;2022-08-19T01:28:49;20.60;99.90
15819;DHT22;8010;53.986;12.106;2022-08-19T01:31:19;20.50;99.90
15819;DHT22;8010;53.986;12.106;2022-08-19T01:33:46;20.50;99.90
15819;DHT22;8010;53.986;12.106;2022-08-19T01:36:15;20.50;99.90
15819;DHT22;8010;53.986;12.106;2022-08-19T01:38:43;20.40;99.90
15819;DHT22;8010;53.986;12.106;2022-08-19T01:41:10;20.40;99.90
15819;DHT22;8010;53.986;12.106;2022-08-19T01:43:36;20.40;99.90
15819;DHT22;8010;53.986;12.106;2022-08-19T01:46:02;20.30;99.90
15819;DHT22;8010;53.986;12.106;2022-08-19T01:48:33;20.30;99.90
15819;DHT22;8010;53.986;12.106;2022-08-19T01:50:59;20.40;99.90
15819;DHT22;8010;53.986;12.106;2022-08-19T01:53:25;20.30;99.90
15819;DHT22;8010;53.986;12.106;2022-08-19T01:55:50;20.30;99.90
15819;DHT22;8010;53.986;12.106;2022-08-19T01:58:20;20.30;99.90
15819;DHT22;8010;53.986;12.106;2022-08-19T02:00:46;20.30;99.90
15819;DHT22;8010;53.986;12.106;2022-08-19T02:03:11;20.30;99.90
15819;DHT22;8010;53.986;12.106;2022-08-19T02:05:38;20.30;99.90
15819;DHT22;8010;53.986;12.106;2022-08-19T02:08:04;20.30;99.90
15819;DHT22;8010;53.986;12.106;2022-08-19T02:10:30;20.30;99.90
15819;DHT22;8010;53.986;12.106;2022-08-19T02:12:57;20.30;99.90
15819;DHT22;8010;53.986;12.106;2022-08-19T02:15:22;20.30;99.90
15819;DHT22;8010;53.986;12.106;2022-08-19T02:17:49;20.30;99.90
15819;DHT22;8010;53.986;12.106;2022-08-19T02:20:15;20.20;99.90
15819;DHT22;8010;53.986;12.106;2022-08-19T02:22:42;20.20;99.90
15819;DHT22;8010;53.986;12.106;2022-08-19T02:25:12;20.20;99.90
15819;DHT22;8010;53.986;12.106;2022-08-19T02:27:38;20.20;99.90
15819;DHT22;8010;53.986;12.106;2022-08-19T02:30:12;20.20;99.90
15819;DHT22;8010;53.986;12.106;2022-08-19T02:32:38;20.20;99.90
15819;DHT22;8010;53.986;12.106;2022-08-19T02:35:04;20.20;99.90
15819;DHT22;8010;53.986;12.106;2022-08-19T02:37:30;20.20;99.90
15819;DHT22;8010;53.986;12.106;2022-08-19T02:40:14;20.20;99.90
15819;DHT22;8010;53.986;12.106;2022-08-19T02:42:40;20.10;99.90
15819;DHT22;8010;53.986;12.106;2022-08-19T02:45:06;20.20;99.90
15819;DHT22;8010;53.986;12.106;2022-08-19T02:47:33;20.10;99.90
15819;DHT22;8010;53.986;12.106;2022-08-19T02:50:01;20.10;99.90
15819;DHT22;8010;53.986;12.106;2022-08-19T02:52:27;20.10;99.90
15819;DHT22;8010;53.986;12.106;2022-08-19T02:54:53;20.10;99.90
15819;DHT22;8010;53.986;12.106;2022-08-19T02:57:19;20.10;99.90
15819;DHT22;8010;53.986;12.106;2022-08-19T02:59:44;20.10;99.90
15819;DHT22;8010;53.986;12.106;2022-08-19T03:02:10;20.10;99.90
15819;DHT22;8010;53.986;12.106;2022-08-19T03:04:35;20.10;99.90
15819;DHT22;8010;53.986;12.106;2022-08-19T03:07:01;20.10;99.90
15819;DHT22;8010;53.986;12.106;2022-08-19T03:09:26;20.10;99.90
15819;DHT22;8010;53.986;12.106;2022-08-19T03:11:52;20.10;99.90
15819;DHT22;8010;53.986;12.106;2022-08-19T03:14:17;20.10;99.90
15819;DHT22;8010;53.986;12.106;2022-08-19T03:16:51;20.10;99.90
15819;DHT22;8010;53.986;12.106;2022-08-19T03:19:18;20.10;99.90
15819;DHT22;8010;53.986;12.106;2022-08-19T03:21:45;20.20;99.90
15819;DHT22;8010;53.986;12.106;2022-08-19T03:24:11;20.20;99.90
15819;DHT22;8010;53.986;12.106;2022-08-19T03:26:42;20.20;99.90
15819;DHT22;8010;53.986;12.106;2022-08-19T03:29:08;20.20;99.90
15819;DHT22;8010;53.986;12.106;2022-08-19T03:31:36;20.30;99.90
15819;DHT22;8010;53.986;12.106;2022-08-19T03:34:01;20.30;99.90
15819;DHT22;8010;53.986;12.106;2022-08-19T03:36:27;20.30;99.90
15819;DHT22;8010;53.986;12.106;2022-08-19T03:38:57;20.30;99.90
15819;DHT22;8010;53.986;12.106;2022-08-19T03:41:28;20.30;99.90
15819;DHT22;8010;53.986;12.106;2022-08-19T03:43:54;20.30;99.90
15819;DHT22;8010;53.986;12.106;2022-08-19T03:46:26;20.40;99.90
15819;DHT22;8010;53.986;12.106;2022-08-19T03:48:54;20.20;99.90
15819;DHT22;8010;53.986;12.106;2022-08-19T03:51:23;20.30;99.90
15819;DHT22;8010;53.986;12.106;2022-08-19T03:53:50;20.30;99.90
15819;DHT22;8010;53.986;12.106;2022-08-19T03:56:17;20.30;99.90
15819;DHT22;8010;53.986;12.106;2022-08-19T03:58:43;20.30;99.90
15819;DHT22;8010;53.986;12.106;2022-08-19T04:01:14;20.20;99.90
15819;DHT22;8010;53.986;12.106;2022-08-19T04:03:40;20.30;99.90
15819;DHT22;8010;53.986;12.106;2022-08-19T04:06:14;20.30;99.90
15819;DHT22;8010;53.986;12.106;2022-08-19T04:08:41;20.30;99.90
15819;DHT22;8010;53.986;12.106;2022-08-19T04:11:09;20.30;99.90
15819;DHT22;8010;53.986;12.106;2022-08-19T04:13:35;20.30;99.90
15819;DHT22;8010;53.986;12.106;2022-08-19T04:16:01;20.30;99.90
15819;DHT22;8010;53.986;12.106;2022-08-19T04:18:26;20.20;99.90
15819;DHT22;8010;53.986;12.106;2022-08-19T04:20:55;20.30;99.90
15819;DHT22;8010;53.986;12.106;2022-08-19T04:23:20;20.30;99.90
15819;DHT22;8010;53.986;12.106;2022-08-19T04:25:46;20.20;99.90
15819;DHT22;8010;53.986;12.106;2022-08-19T04:28:12;20.30;99.90
15819;DHT22;8010;53.986;12.106;2022-08-19T04:30:44;20.30;99.90
15819;DHT22;8010;53.986;12.106;2022-08-19T04:33:11;20.30;99.90
15819;DHT22;8010;53.986;12.106;2022-08-19T04:35:42;20.40;99.90
15819;DHT22;8010;53.986;12.106;2022-08-19T04:38:08;20.40;99.90
15819;DHT22;8010;53.986;12.106;2022-08-19T04:40:40;20.40;99.90
15819;DHT22;8010;53.986;12.106;2022-08-19T04:43:24;20.40;99.90
15819;DHT22;8010;53.986;12.106;2022-08-19T04:45:50;20.40;99.90
15819;DHT22;8010;53.986;12.106;2022-08-19T04:48:16;20.40;99.90
15819;DHT22;8010;53.986;12.106;2022-08-19T04:50:44;20.40;99.90
15819;DHT22;8010;53.986;12.106;2022-08-19T04:53:10;20.40;99.90
15819;DHT22;8010;53.986;12.106;2022-08-19T04:55:40;20.40;99.90
15819;DHT22;8010;53.986;12.106;2022-08-19T04:58:06;20.50;99.90
15819;DHT22;8010;53.986;12.106;2022-08-19T05:00:31;20.50;99.90
15819;DHT22;8010;53.986;12.106;2022-08-19T05:02:57;20.50;99.90
15819;DHT22;8010;53.986;12.106;2022-08-19T05:05:23;20.50;99.90
15819;DHT22;8010;53.986;12.106;2022-08-19T05:07:48;20.50;99.90
15819;DHT22;8010;53.986;12.106;2022-08-19T05:10:14;20.50;99.90
15819;DHT22;8010;53.986;12.106;2022-08-19T05:12:39;20.60;99.90
15819;DHT22;8010;53.986;12.106;2022-08-19T05:15:07;20.60;99.90
15819;DHT22;8010;53.986;12.106;2022-08-19T05:17:34;20.60;99.90
15819;DHT22;8010;53.986;12.106;2022-08-19T05:20:00;20.60;99.90
15819;DHT22;8010;53.986;12.106;2022-08-19T05:22:47;20.60;99.90
15819;DHT22;8010;53.986;12.106;2022-08-19T05:25:16;20.60;99.90
15819;DHT22;8010;53.986;12.106;2022-08-19T05:27:44;20.60;99.90
15819;DHT22;8010;53.986;12.106;2022-08-19T05:30:10;20.70;99.90
15819;DHT22;8010;53.986;12.106;2022-08-19T05:32:36;20.70;99.90
15819;DHT22;8010;53.986;12.106;2022-08-19T05:35:03;20.70;99.90
15819;DHT22;8010;53.986;12.106;2022-08-19T05:37:29;20.70;99.90
15819;DHT22;8010;53.986;12.106;2022-08-19T05:39:55;20.70;99.90
15819;DHT22;8010;53.986;12.106;2022-08-19T05:42:21;20.70;99.90
15819;DHT22;8010;53.986;12.106;2022-08-19T05:44:48;20.70;99.90
15819;DHT22;8010;53.986;12.106;2022-08-19T05:47:14;20.70;99.90
15819;DHT22;8010;53.986;12.106;2022-08-19T05:49:41;20.70;99.90
15819;DHT22;8010;53.986;12.106;2022-08-19T05:52:10;20.70;99.90
15819;DHT22;8010;53.986;12.106;2022-08-19T05:54:37;20.70;99.90
15819;DHT22;8010;53.986;12.106;2022-08-19T05:57:05;20.70;99.90
15819;DHT22;8010;53.986;12.106;2022-08-19T05:59:31;20.80;99.90
15819;DHT22;8010;53.986;12.106;2022-08-19T06:01:57;20.80;99.90
15819;DHT22;8010;53.986;12.106;2022-08-19T06:04:23;20.80;99.90
15819;DHT22;8010;53.986;12.106;2022-08-19T06:06:51;20.80;99.90
15819;DHT22;8010;53.986;12.106;2022-08-19T06:09:20;20.90;99.90
15819;DHT22;8010;53.986;12.106;2022-08-19T06:11:55;20.90;99.90
15819;DHT22;8010;53.986;12.106;2022-08-19T06:14:26;20.90;99.90
15819;DHT22;8010;53.986;12.106;2022-08-19T06:16:52;20.90;99.90
15819;DHT22;8010;53.986;12.106;2022-08-19T06:19:20;20.90;99.90
15819;DHT22;8010;53.986;12.106;2022-08-19T06:21:47;20.90;99.90
15819;DHT22;8010;53.986;12.106;2022-08-19T06:24:16;20.90;99.90
15819;DHT22;8010;53.986;12.106;2022-08-19T06:26:45;20.90;99.90
15819;DHT22;8010;53.986;12.106;2022-08-19T06:29:12;20.90;99.90
15819;DHT22;8010;53.986;12.106;2022-08-19T06:31:42;20.90;99.90
15819;DHT22;8010;53.986;12.106;2022-08-19T06:34:08;21.00;99.90
15819;DHT22;8010;53.986;12.106;2022-08-19T06:36:58;20.90;99.90
15819;DHT22;8010;53.986;12.106;2022-08-19T06:39:28;20.90;99.90
15819;DHT22;8010;53.986;12.106;2022-08-19T06:41:58;21.00;99.90
15819;DHT22;8010;53.986;12.106;2022-08-19T06:44:27;21.00;99.90
15819;DHT22;8010;53.986;12.106;2022-08-19T06:46:56;21.00;99.90
15819;DHT22;8010;53.986;12.106;2022-08-19T06:49:22;20.90;99.90
15819;DHT22;8010;53.986;12.106;2022-08-19T06:51:49;20.90;99.90
15819;DHT22;8010;53.986;12.106;2022-08-19T06:54:18;20.90;99.90
15819;DHT22;8010;53.986;12.106;2022-08-19T06:56:44;20.90;99.90
15819;DHT22;8010;53.986;12.106;2022-08-19T06:59:13;20.90;99.90
15819;DHT22;8010;53.986;12.106;2022-08-19T07:01:42;20.90;99.90
15819;DHT22;8010;53.986;12.106;2022-08-19T07:04:09;20.90;99.90
15819;DHT22;8010;53.986;12.106;2022-08-19T07:06:36;20.90;99.90
15819;DHT22;8010;53.986;12.106;2022-08-19T07:09:06;20.90;99.90
15819;DHT22;8010;53.986;12.106;2022-08-19T07:11:31;20.90;99.90
15819;DHT22;8010;53.986;12.106;2022-08-19T07:13:58;20.90;99.90
15819;DHT22;8010;53.986;12.106;2022-08-19T07:16:24;21.00;99.90
15819;DHT22;8010;53.986;12.106;2022-08-19T07:18:51;21.00;99.90
15819;DHT22;8010;53.986;12.106;2022-08-19T07:21:19;21.00;99.90
15819;DHT22;8010;53.986;12.106;2022-08-19T07:23:46;21.00;99.90
15819;DHT22;8010;53.986;12.106;2022-08-19T07:28:40;21.10;99.90
15819;DHT22;8010;53.986;12.106;2022-08-19T07:31:06;21.20;99.90
15819;DHT22;8010;53.986;12.106;2022-08-19T07:33:33;21.10;99.90
15819;DHT22;8010;53.986;12.106;2022-08-19T07:35:59;21.10;99.90
15819;DHT22;8010;53.986;12.106;2022-08-19T07:38:25;21.20;99.90
15819;DHT22;8010;53.986;12.106;2022-08-19T07:40:51;21.20;99.90
15819;DHT22;8010;53.986;12.106;2022-08-19T07:43:17;21.20;99.90
15819;DHT22;8010;53.986;12.106;2022-08-19T07:45:48;21.20;99.90
15819;DHT22;8010;53.986;12.106;2022-08-19T07:48:13;21.20;99.90
15819;DHT22;8010;53.986;12.106;2022-08-19T07:50:39;21.20;99.90
15819;DHT22;8010;53.986;12.106;2022-08-19T07:53:05;21.20;99.90
15819;DHT22;8010;53.986;12.106;2022-08-19T07:55:30;21.30;99.90
15819;DHT22;8010;53.986;12.106;2022-08-19T07:57:56;21.30;99.90
15819;DHT22;8010;53.986;12.106;2022-08-19T08:00:22;21.30;99.90
15819;DHT22;8010;53.986;12.106;2022-08-19T08:02:48;21.40;99.90
15819;DHT22;8010;53.986;12.106;2022-08-19T08:05:13;21.40;99.90
15819;DHT22;8010;53.986;12.106;2022-08-19T08:07:57;21.50;99.90
15819;DHT22;8010;53.986;12.106;2022-08-19T08:10:41;21.50;99.90
15819;DHT22;8010;53.986;12.106;2022-08-19T08:13:07;21.50;99.90
15819;DHT22;8010;53.986;12.106;2022-08-19T08:15:33;21.50;99.90
15819;DHT22;8010;53.986;12.106;2022-08-19T08:17:58;21.50;99.90
15819;DHT22;8010;53.986;12.106;2022-08-19T08:20:24;21.50;99.90
15819;DHT22;8010;53.986;12.106;2022-08-19T08:22:49;21.50;99.90
15819;DHT22;8010;53.986;12.106;2022-08-19T08:25:35;21.50;99.90
15819;DHT22;8010;53.986;12.106;2022-08-19T08:28:02;21.50;99.90
15819;DHT22;8010;53.986;12.106;2022-08-19T08:30:30;21.50;99.90
15819;DHT22;8010;53.986;12.106;2022-08-19T08:32:57;21.50;99.90
15819;DHT22;8010;53.986;12.106;2022-08-19T08:35:24;21.50;99.90
15819;DHT22;8010;53.986;12.106;2022-08-19T08:37:52;21.50;99.90
15819;DHT22;8010;53.986;12.106;2022-08-19T08:43:13;21.50;99.90
15819;DHT22;8010;53.986;12.106;2022-08-19T08:45:47;21.50;99.90
15819;DHT22;8010;53.986;12.106;2022-08-19T08:48:27;21.50;99.90
15819;DHT22;8010;53.986;12.106;2022-08-19T08:50:57;21.60;99.90
15819;DHT22;8010;53.986;12.106;2022-08-19T08:53:24;21.60;99.90
15819;DHT22;8010;53.986;12.106;2022-08-19T08:55:50;21.70;99.90
15819;DHT22;8010;53.986;12.106;2022-08-19T08:59:05;21.90;99.90
15819;DHT22;8010;53.986;12.106;2022-08-19T09:01:23;21.70;99.90
15819;DHT22;8010;53.986;12.106;2022-08-19T09:03:49;21.80;99.90
15819;DHT22;8010;53.986;12.106;2022-08-19T09:09:16;21.80;99.90
15819;DHT22;8010;53.986;12.106;2022-08-19T09:12:01;21.80;99.90
15819;DHT22;8010;53.986;12.106;2022-08-19T09:14:45;21.80;99.90
15819;DHT22;8010;53.986;12.106;2022-08-19T09:17:14;21.80;99.90
15819;DHT22;8010;53.986;12.106;2022-08-19T09:19:55;21.80;99.90
15819;DHT22;8010;53.986;12.106;2022-08-19T09:22:21;21.90;99.90
15819;DHT22;8010;53.986;12.106;2022-08-19T09:24:49;21.90;99.90
15819;DHT22;8010;53.986;12.106;2022-08-19T09:27:15;21.90;99.90
15819;DHT22;8010;53.986;12.106;2022-08-19T09:29:41;21.90;99.90
15819;DHT22;8010;53.986;12.106;2022-08-19T09:32:06;21.90;99.90
15819;DHT22;8010;53.986;12.106;2022-08-19T09:34:32;22.00;99.90
15819;DHT22;8010;53.986;12.106;2022-08-19T09:36:58;22.00;99.90
15819;DHT22;8010;53.986;12.106;2022-08-19T09:39:25;22.00;99.90
15819;DHT22;8010;53.986;12.106;2022-08-19T09:41:51;22.00;99.90
15819;DHT22;8010;53.986;12.106;2022-08-19T09:44:17;22.20;99.90
15819;DHT22;8010;53.986;12.106;2022-08-19T09:46:42;22.20;99.90
15819;DHT22;8010;53.986;12.106;2022-08-19T09:49:08;22.10;99.90
15819;DHT22;8010;53.986;12.106;2022-08-19T09:51:34;22.10;99.90
15819;DHT22;8010;53.986;12.106;2022-08-19T09:54:01;22.10;99.90
15819;DHT22;8010;53.986;12.106;2022-08-19T09:56:28;22.10;99.90
15819;DHT22;8010;53.986;12.106;2022-08-19T09:58:57;22.10;99.90
15819;DHT22;8010;53.986;12.106;2022-08-19T10:01:29;22.20;99.90
15819;DHT22;8010;53.986;12.106;2022-08-19T10:03:56;22.20;99.90
15819;DHT22;8010;53.986;12.106;2022-08-19T10:06:24;22.20;99.90
15819;DHT22;8010;53.986;12.106;2022-08-19T10:08:51;22.10;99.90
15819;DHT22;8010;53.986;12.106;2022-08-19T10:11:17;22.10;99.90
15819;DHT22;8010;53.986;12.106;2022-08-19T10:13:44;22.10;99.90
15819;DHT22;8010;53.986;12.106;2022-08-19T10:16:16;22.00;99.90
15819;DHT22;8010;53.986;12.106;2022-08-19T10:18:43;22.00;99.90
15819;DHT22;8010;53.986;12.106;2022-08-19T10:21:14;22.00;99.90
15819;DHT22;8010;53.986;12.106;2022-08-19T10:23:43;22.00;99.90
15819;DHT22;8010;53.986;12.106;2022-08-19T10:26:15;22.00;99.90
15819;DHT22;8010;53.986;12.106;2022-08-19T10:28:41;22.00;99.90
15819;DHT22;8010;53.986;12.106;2022-08-19T10:31:09;21.90;99.90
15819;DHT22;8010;53.986;12.106;2022-08-19T10:33:36;21.90;99.90
15819;DHT22;8010;53.986;12.106;2022-08-19T10:36:11;21.80;99.90
15819;DHT22;8010;53.986;12.106;2022-08-19T10:38:40;21.80;99.90
15819;DHT22;8010;53.986;12.106;2022-08-19T10:41:08;21.80;99.90
15819;DHT22;8010;53.986;12.106;2022-08-19T10:43:34;21.90;99.90
15819;DHT22;8010;53.986;12.106;2022-08-19T10:46:04;21.80;99.90
15819;DHT22;8010;53.986;12.106;2022-08-19T10:48:31;21.80;99.90
15819;DHT22;8010;53.986;12.106;2022-08-19T10:50:57;21.80;99.90
15819;DHT22;8010;53.986;12.106;2022-08-19T10:53:41;21.80;99.90
15819;DHT22;8010;53.986;12.106;2022-08-19T10:56:07;21.80;99.90
15819;DHT22;8010;53.986;12.106;2022-08-19T10:58:51;21.80;99.90
15819;DHT22;8010;53.986;12.106;2022-08-19T11:01:18;21.80;99.90
15819;DHT22;8010;53.986;12.106;2022-08-19T11:03:43;21.80;99.90
15819;DHT22;8010;53.986;12.106;2022-08-19T11:06:10;21.80;99.90
15819;DHT22;8010;53.986;12.106;2022-08-19T11:08:36;21.80;99.90
15819;DHT22;8010;53.986;12.106;2022-08-19T11:11:04;21.90;99.90
15819;DHT22;8010;53.986;12.106;2022-08-19T11:13:32;21.90;99.90
15819;DHT22;8010;53.986;12.106;2022-08-19T11:16:11;21.90;99.90
15819;DHT22;8010;53.986;12.106;2022-08-19T11:18:41;21.90;99.90
15819;DHT22;8010;53.986;12.106;2022-08-19T11:21:21;21.90;99.90
15819;DHT22;8010;53.986;12.106;2022-08-19T11:23:48;21.90;99.90
15819;DHT22;8010;53.986;12.106;2022-08-19T11:26:15;21.90;99.90
15819;DHT22;8010;53.986;12.106;2022-08-19T11:28:41;21.90;99.90
15819;DHT22;8010;53.986;12.106;2022-08-19T11:31:13;21.90;99.90
15819;DHT22;8010;53.986;12.106;2022-08-19T11:33:40;21.90;99.90
15819;DHT22;8010;53.986;12.106;2022-08-19T11:36:06;21.90;99.90
15819;DHT22;8010;53.986;12.106;2022-08-19T11:38:33;22.00;99.90
15819;DHT22;8010;53.986;12.106;2022-08-19T11:41:02;21.90;99.90
15819;DHT22;8010;53.986;12.106;2022-08-19T11:43:28;21.90;99.90
15819;DHT22;8010;53.986;12.106;2022-08-19T11:45:54;21.90;99.90
15819;DHT22;8010;53.986;12.106;2022-08-19T11:48:21;21.80;99.90
15819;DHT22;8010;53.986;12.106;2022-08-19T11:50:48;21.80;99.90
15819;DHT22;8010;53.986;12.106;2022-08-19T11:53:13;21.70;99.90
15819;DHT22;8010;53.986;12.106;2022-08-19T11:55:39;21.70;99.90
15819;DHT22;8010;53.986;12.106;2022-08-19T11:58:05;21.70;99.90
15819;DHT22;8010;53.986;12.106;2022-08-19T12:00:32;21.70;99.90
15819;DHT22;8010;53.986;12.106;2022-08-19T12:03:00;21.70;99.90
15819;DHT22;8010;53.986;12.106;2022-08-19T12:05:26;21.70;99.90
15819;DHT22;8010;53.986;12.106;2022-08-19T12:07:51;21.80;99.90
15819;DHT22;8010;53.986;12.106;2022-08-19T12:10:17;21.80;99.90
15819;DHT22;8010;53.986;12.106;2022-08-19T12:12:43;21.80;99.90
15819;DHT22;8010;53.986;12.106;2022-08-19T12:15:11;21.90;99.90
15819;DHT22;8010;53.986;12.106;2022-08-19T12:17:37;21.80;99.90
15819;DHT22;8010;53.986;12.106;2022-08-19T12:20:04;21.80;99.90
15819;DHT22;8010;53.986;12.106;2022-08-19T12:22:30;21.80;99.90
15819;DHT22;8010;53.986;12.106;2022-08-19T12:24:55;21.80;99.90
15819;DHT22;8010;53.986;12.106;2022-08-19T12:27:21;21.80;99.90
15819;DHT22;8010;53.986;12.106;2022-08-19T12:29:46;21.80;99.90
15819;DHT22;8010;53.986;12.106;2022-08-19T12:32:12;21.80;99.90
15819;DHT22;8010;53.986;12.106;2022-08-19T12:34:38;21.80;99.90
15819;DHT22;8010;53.986;12.106;2022-08-19T12:37:05;21.80;99.90
15819;DHT22;8010;53.986;12.106;2022-08-19T12:39:35;21.70;99.90
15819;DHT22;8010;53.986;12.106;2022-08-19T12:42:01;21.70;99.90
15819;DHT22;8010;53.986;12.106;2022-08-19T12:44:26;21.70;99.90
15819;DHT22;8010;53.986;12.106;2022-08-19T12:46:52;21.70;99.90
15819;DHT22;8010;53.986;12.106;2022-08-19T12:49:17;21.70;99.90
15819;DHT22;8010;53.986;12.106;2022-08-19T12:51:43;22.70;99.90
15819;DHT22;8010;53.986;12.106;2022-08-19T12:54:08;21.70;99.90
15819;DHT22;8010;53.986;12.106;2022-08-19T12:56:34;21.70;99.90
15819;DHT22;8010;53.986;12.106;2022-08-19T12:59:03;21.70;99.90
15819;DHT22;8010;53.986;12.106;2022-08-19T13:01:29;21.70;99.90
15819;DHT22;8010;53.986;12.106;2022-08-19T13:03:58;21.60;99.90
15819;DHT22;8010;53.986;12.106;2022-08-19T13:06:25;21.60;99.90
15819;DHT22;8010;53.986;12.106;2022-08-19T13:08:50;21.60;99.90
15819;DHT22;8010;53.986;12.106;2022-08-19T13:11:19;21.60;99.90
15819;DHT22;8010;53.986;12.106;2022-08-19T13:13:47;21.50;99.90
15819;DHT22;8010;53.986;12.106;2022-08-19T13:16:13;21.50;99.90
15819;DHT22;8010;53.986;12.106;2022-08-19T13:18:41;21.50;99.90
15819;DHT22;8010;53.986;12.106;2022-08-19T13:21:09;21.50;99.90
15819;DHT22;8010;53.986;12.106;2022-08-19T13:23:36;21.50;99.90
15819;DHT22;8010;53.986;12.106;2022-08-19T13:26:04;21.50;99.90
15819;DHT22;8010;53.986;12.106;2022-08-19T13:28:30;21.60;99.90
15819;DHT22;8010;53.986;12.106;2022-08-19T13:31:18;21.60;99.90
15819;DHT22;8010;53.986;12.106;2022-08-19T13:34:03;21.60;99.90
15819;DHT22;8010;53.986;12.106;2022-08-19T13:36:31;21.70;99.90
15819;DHT22;8010;53.986;12.106;2022-08-19T13:38:57;21.70;99.90
15819;DHT22;8010;53.986;12.106;2022-08-19T13:41:23;21.60;99.90
15819;DHT22;8010;53.986;12.106;2022-08-19T13:43:48;25.40;99.90
15819;DHT22;8010;53.986;12.106;2022-08-19T13:46:14;21.50;99.90
15819;DHT22;8010;53.986;12.106;2022-08-19T13:48:40;21.50;99.90
15819;DHT22;8010;53.986;12.106;2022-08-19T13:51:09;21.50;99.90
15819;DHT22;8010;53.986;12.106;2022-08-19T13:53:37;21.50;99.90
15819;DHT22;8010;53.986;12.106;2022-08-19T13:56:06;21.40;99.90
15819;DHT22;8010;53.986;12.106;2022-08-19T13:58:33;21.40;99.90
15819;DHT22;8010;53.986;12.106;2022-08-19T14:00:58;21.50;99.90
15819;DHT22;8010;53.986;12.106;2022-08-19T14:03:25;21.40;99.90
15819;DHT22;8010;53.986;12.106;2022-08-19T14:05:50;21.50;99.90
15819;DHT22;8010;53.986;12.106;2022-08-19T14:08:16;21.50;99.90
15819;DHT22;8010;53.986;12.106;2022-08-19T14:10:42;21.30;99.90
15819;DHT22;8010;53.986;12.106;2022-08-19T14:13:12;21.40;99.90
15819;DHT22;8010;53.986;12.106;2022-08-19T14:15:38;21.40;99.90
15819;DHT22;8010;53.986;12.106;2022-08-19T14:18:03;21.40;99.90
15819;DHT22;8010;53.986;12.106;2022-08-19T14:20:29;21.50;99.90
15819;DHT22;8010;53.986;12.106;2022-08-19T14:22:55;22.70;99.90
15819;DHT22;8010;53.986;12.106;2022-08-19T14:25:23;21.40;99.90
15819;DHT22;8010;53.986;12.106;2022-08-19T14:27:50;21.30;99.90
15819;DHT22;8010;53.986;12.106;2022-08-19T14:30:20;21.30;99.90
15819;DHT22;8010;53.986;12.106;2022-08-19T14:32:46;21.30;99.90
15819;DHT22;8010;53.986;12.106;2022-08-19T14:35:14;21.40;99.90
15819;DHT22;8010;53.986;12.106;2022-08-19T14:37:42;21.50;99.90
15819;DHT22;8010;53.986;12.106;2022-08-19T14:40:08;21.50;99.90
15819;DHT22;8010;53.986;12.106;2022-08-19T14:42:34;21.50;99.90
15819;DHT22;8010;53.986;12.106;2022-08-19T14:45:00;21.50;99.90
15819;DHT22;8010;53.986;12.106;2022-08-19T14:47:26;21.50;99.90
15819;DHT22;8010;53.986;12.106;2022-08-19T14:49:52;21.50;99.90
15819;DHT22;8010;53.986;12.106;2022-08-19T14:52:18;21.50;99.90
15819;DHT22;8010;53.986;12.106;2022-08-19T14:54:43;21.40;99.90
15819;DHT22;8010;53.986;12.106;2022-08-19T14:57:12;21.40;99.90
15819;DHT22;8010;53.986;12.106;2022-08-19T14:59:38;21.30;99.90
15819;DHT22;8010;53.986;12.106;2022-08-19T15:02:04;21.20;99.90
15819;DHT22;8010;53.986;12.106;2022-08-19T15:04:29;21.20;99.90
15819;DHT22;8010;53.986;12.106;2022-08-19T15:06:55;21.20;99.90
15819;DHT22;8010;53.986;12.106;2022-08-19T15:09:20;21.20;99.90
15819;DHT22;8010;53.986;12.106;2022-08-19T15:11:46;21.20;99.90
15819;DHT22;8010;53.986;12.106;2022-08-19T15:14:11;21.20;99.90
15819;DHT22;8010;53.986;12.106;2022-08-19T15:16:39;21.20;99.90
15819;DHT22;8010;53.986;12.106;2022-08-19T15:19:06;21.20;99.90
15819;DHT22;8010;53.986;12.106;2022-08-19T15:21:31;21.20;99.90
15819;DHT22;8010;53.986;12.106;2022-08-19T15:23:58;21.20;99.90
15819;DHT22;8010;53.986;12.106;2022-08-19T15:26:24;21.20;99.90
15819;DHT22;8010;53.986;12.106;2022-08-19T15:28:51;21.20;99.90
15819;DHT22;8010;53.986;12.106;2022-08-19T15:31:19;21.20;99.90
15819;DHT22;8010;53.986;12.106;2022-08-19T15:33:45;21.30;99.90
15819;DHT22;8010;53.986;12.106;2022-08-19T15:36:11;21.30;99.90
15819;DHT22;8010;53.986;12.106;2022-08-19T15:38:38;21.30;99.90
15819;DHT22;8010;53.986;12.106;2022-08-19T15:41:04;21.30;99.90